Time;durP1;ratioP1;P1;durP2;ratioP2;P2;SDS_P1;SDS_P2;PMS_P1;PMS_P2;Temp;Humidity;BMP_temperature;BMP_pressure;BME280_temperature;BME280_humidity;BME280_pressure;Samples;Min_cycle;Max_cycle;Signal;HPM_P1;HPM_P2
2023/06/12 00:00:05;;;;;;;2.95;2.00;;;;;;;14.35;100.00;98546.09;4455384;32;20495;-67
2023/06/12 00:02:34;;;;;;;5.45;1.83;;;;;;;14.36;100.00;98554.81;4469297;32;20167;-67
2023/06/12 00:05:04;;;;;;;3.40;2.42;;;;;;;14.42;100.00;98550.69;4469321;32;20179;-66
2023/06/12 00:07:32;;;;;;;3.08;2.33;;;;;;;14.43;100.00;98552.31;4469463;32;20081;-66
2023/06/12 00:09:59;;;;;;;3.42;2.30;;;;;;;14.38;100.00;98552.84;4469350;32;20164;-66
2023/06/12 00:12:26;;;;;;;3.83;1.73;;;;;;;14.35;100.00;98547.91;4469701;32;20151;-66
2023/06/12 00:14:53;;;;;;;4.95;2.00;;;;;;;14.36;100.00;98545.09;4469396;32;20180;-66
2023/06/12 00:17:21;;;;;;;4.95;1.83;;;;;;;14.32;100.00;98543.81;4469382;32;20118;-66
2023/06/12 00:19:48;;;;;;;6.28;2.50;;;;;;;14.31;100.00;98536.88;4469154;32;20364;-66
2023/06/12 00:22:16;;;;;;;4.20;2.00;;;;;;;14.33;100.00;98539.34;4469526;32;20142;-66
2023/06/12 00:24:43;;;;;;;2.78;1.95;;;;;;;14.29;100.00;98538.88;4469276;32;20084;-66
2023/06/12 00:27:11;;;;;;;4.37;2.30;;;;;;;14.28;100.00;98537.22;4469196;32;20139;-66
2023/06/12 00:29:38;;;;;;;4.65;2.15;;;;;;;14.27;100.00;98537.37;4469338;32;20193;-66
2023/06/12 00:32:06;;;;;;;2.55;1.87;;;;;;;14.22;100.00;98539.66;4469335;32;20130;-66
2023/06/12 00:34:33;;;;;;;3.05;1.90;;;;;;;14.20;100.00;98535.41;4469153;32;20084;-66
2023/06/12 00:37:00;;;;;;;4.87;2.08;;;;;;;14.22;100.00;98537.03;4469390;32;20149;-66
2023/06/12 00:39:28;;;;;;;7.85;3.00;;;;;;;14.19;100.00;98535.56;4469098;32;20574;-66
2023/06/12 00:41:55;;;;;;;3.62;2.33;;;;;;;14.19;100.00;98532.94;4469173;32;20187;-66
2023/06/12 00:44:23;;;;;;;5.05;2.35;;;;;;;14.12;100.00;98526.69;4469285;32;20600;-66
2023/06/12 00:46:51;;;;;;;3.65;2.22;;;;;;;14.12;100.00;98531.94;4469142;32;20556;-66
2023/06/12 00:49:19;;;;;;;3.80;2.28;;;;;;;14.13;100.00;98531.78;4455034;32;20481;-66
2023/06/12 00:51:47;;;;;;;3.05;2.25;;;;;;;14.10;100.00;98533.94;4469136;32;20092;-66
2023/06/12 00:54:14;;;;;;;3.03;2.05;;;;;;;14.05;100.00;98528.31;4455131;32;20122;-67
2023/06/12 00:56:42;;;;;;;3.03;2.15;;;;;;;14.05;100.00;98520.44;4469109;32;20092;-67
2023/06/12 00:59:09;;;;;;;3.12;2.22;;;;;;;14.09;100.00;98524.38;4469329;32;20172;-67
2023/06/12 01:01:37;;;;;;;2.75;2.33;;;;;;;14.04;100.00;98529.34;4469142;32;20099;-66
2023/06/12 01:04:04;;;;;;;3.35;2.15;;;;;;;14.01;100.00;98522.56;4468947;32;20119;-66
2023/06/12 01:06:55;;;;;;;2.60;1.98;;;;;;;13.97;100.00;98524.72;4454911;32;20600;-66
2023/06/12 01:09:23;;;;;;;12.23;2.25;;;;;;;13.94;100.00;98521.59;4469168;32;20123;-66
2023/06/12 01:11:52;;;;;;;3.72;2.45;;;;;;;13.91;100.00;98517.47;4469254;32;20100;-66
2023/06/12 01:14:20;;;;;;;3.75;2.50;;;;;;;13.88;100.00;98517.78;4451287;32;20153;-66
2023/06/12 01:16:48;;;;;;;4.72;2.20;;;;;;;13.87;100.00;98513.53;4467095;32;20092;-67
2023/06/12 01:19:19;;;;;;;5.03;2.40;;;;;;;13.81;100.00;98515.00;4469188;32;20096;-66
2023/06/12 01:21:50;;;;;;;5.05;2.50;;;;;;;13.81;100.00;98514.19;4469000;32;20113;-66
2023/06/12 01:24:36;;;;;;;5.00;2.20;;;;;;;13.82;100.00;98513.19;4469129;32;20498;-66
2023/06/12 01:27:14;;;;;;;3.37;2.00;;;;;;;13.84;100.00;98516.50;4468793;32;20073;-66
2023/06/12 01:29:57;;;;;;;3.28;2.05;;;;;;;13.86;100.00;98522.41;4468670;32;20093;-67
2023/06/12 01:32:24;;;;;;;5.50;2.75;;;;;;;13.77;100.00;98523.41;4468892;32;20088;-66
2023/06/12 01:34:58;;;;;;;3.17;2.10;;;;;;;13.71;100.00;98524.06;4454635;32;20156;-66
2023/06/12 01:37:47;;;;;;;3.58;2.30;;;;;;;13.75;100.00;98523.56;4469002;32;20108;-66
2023/06/12 01:40:17;;;;;;;5.93;2.12;;;;;;;13.73;100.00;98524.69;4469053;32;20588;-66
2023/06/12 01:42:45;;;;;;;2.72;1.90;;;;;;;13.68;100.00;98522.56;4468563;32;20149;-66
2023/06/12 01:45:12;;;;;;;4.65;2.30;;;;;;;13.62;100.00;98520.59;4454427;32;20092;-66
2023/06/12 01:47:41;;;;;;;3.42;2.08;;;;;;;13.57;100.00;98517.63;4468776;32;20076;-66
2023/06/12 01:50:10;;;;;;;2.67;2.10;;;;;;;13.58;100.00;98524.50;4468826;32;20415;-66
2023/06/12 01:52:38;;;;;;;2.90;2.15;;;;;;;13.61;100.00;98529.44;4468500;32;20092;-66
2023/06/12 01:55:05;;;;;;;4.20;2.50;;;;;;;13.59;100.00;98526.16;4468453;32;20092;-67
2023/06/12 01:57:36;;;;;;;3.28;2.20;;;;;;;13.56;100.00;98526.50;4468271;32;20465;-67
2023/06/12 02:00:04;;;;;;;4.00;2.15;;;;;;;13.55;100.00;98527.47;4463411;32;164650;-66
2023/06/12 02:02:33;;;;;;;4.25;2.47;;;;;;;13.52;100.00;98526.00;4454481;32;20612;-66
2023/06/12 02:05:04;;;;;;;3.40;2.33;;;;;;;13.52;100.00;98531.28;4468401;32;20097;-67
2023/06/12 02:07:32;;;;;;;5.57;2.30;;;;;;;13.46;100.00;98534.56;4468239;32;20128;-66
2023/06/12 02:09:59;;;;;;;3.17;2.08;;;;;;;13.41;100.00;98531.56;4468260;32;20089;-66
2023/06/12 02:12:29;;;;;;;2.72;2.25;;;;;;;13.30;100.00;98525.56;4468381;32;20470;-66
2023/06/12 02:14:57;;;;;;;4.97;2.60;;;;;;;13.31;100.00;98523.78;4468331;32;20092;-66
2023/06/12 02:17:24;;;;;;;2.97;2.20;;;;;;;13.29;100.00;98526.59;4467982;32;20107;-66
2023/06/12 02:19:52;;;;;;;3.65;2.20;;;;;;;13.26;100.00;98529.53;4468250;32;20451;-66
2023/06/12 02:22:19;;;;;;;3.78;2.33;;;;;;;13.19;100.00;98525.88;4467638;32;20118;-66
2023/06/12 02:24:47;;;;;;;5.45;2.20;;;;;;;13.17;100.00;98522.59;4467845;32;20107;-66
2023/06/12 02:27:15;;;;;;;3.12;2.05;;;;;;;13.17;100.00;98522.59;4469244;32;20510;-66
2023/06/12 02:29:42;;;;;;;2.70;2.20;;;;;;;13.15;100.00;98527.19;4470340;32;20406;-66
2023/06/12 02:32:12;;;;;;;4.35;2.05;;;;;;;13.10;100.00;98532.09;4470224;32;20095;-66
2023/06/12 02:34:39;;;;;;;3.40;2.08;;;;;;;13.13;100.00;98529.16;4469964;32;20375;-66
2023/06/12 02:37:08;;;;;;;5.05;2.10;;;;;;;13.15;100.00;98527.19;4470375;32;20101;-66
2023/06/12 02:39:39;;;;;;;3.08;2.40;;;;;;;13.12;100.00;98528.31;4470171;32;20124;-66
2023/06/12 02:42:07;;;;;;;3.25;2.40;;;;;;;13.13;100.00;98524.72;4469939;32;20096;-66
2023/06/12 02:44:36;;;;;;;4.78;2.83;;;;;;;13.16;100.00;98523.56;4470420;32;20096;-66
2023/06/12 02:47:03;;;;;;;3.55;2.17;;;;;;;13.23;100.00;98527.22;4455788;32;20101;-66
2023/06/12 02:49:31;;;;;;;4.18;2.50;;;;;;;13.23;100.00;98524.59;4470437;32;20089;-66
2023/06/12 02:51:59;;;;;;;4.20;2.33;;;;;;;13.25;100.00;98533.12;4470161;32;20087;-66
2023/06/12 02:54:27;;;;;;;7.37;3.30;;;;;;;13.30;100.00;98522.94;4470388;32;20096;-66
2023/06/12 02:56:55;;;;;;;3.20;2.25;;;;;;;13.22;100.00;98533.47;4470073;32;20150;-66
2023/06/12 02:59:23;;;;;;;4.45;2.33;;;;;;;13.20;100.00;98535.44;4470193;32;20138;-66
2023/06/12 03:01:53;;;;;;;3.92;2.65;;;;;;;13.22;100.00;98540.53;4470173;32;20104;-66
2023/06/12 03:04:21;;;;;;;4.00;2.33;;;;;;;13.22;100.00;98528.19;4470176;32;20132;-66
2023/06/12 03:06:53;;;;;;;4.75;2.70;;;;;;;13.27;100.00;98533.78;4470022;32;20165;-66
2023/06/12 03:09:22;;;;;;;3.00;2.20;;;;;;;13.24;100.00;98526.22;4469974;32;20097;-66
2023/06/12 03:11:51;;;;;;;3.35;2.47;;;;;;;13.17;100.00;98535.75;4469788;32;20115;-66
2023/06/12 03:14:24;;;;;;;4.00;2.62;;;;;;;13.16;100.00;98542.00;4455778;32;20533;-67
2023/06/12 03:16:52;;;;;;;3.53;2.22;;;;;;;13.18;100.00;98544.47;4469711;32;20093;-66
2023/06/12 03:19:19;;;;;;;3.33;2.40;;;;;;;13.30;100.00;98538.72;4470182;32;20109;-66
2023/06/12 03:21:47;;;;;;;6.95;2.87;;;;;;;13.43;100.00;98537.47;4469935;32;20118;-66
2023/06/12 03:24:14;;;;;;;5.28;2.37;;;;;;;13.58;100.00;98538.50;4469703;32;20100;-66
2023/06/12 03:26:42;;;;;;;3.15;2.20;;;;;;;13.62;100.00;98541.62;4469654;32;20149;-66
2023/06/12 03:29:10;;;;;;;4.30;2.40;;;;;;;13.69;100.00;98539.16;4469814;32;20116;-66
2023/06/12 03:31:38;;;;;;;3.20;2.10;;;;;;;13.76;100.00;98545.44;4469735;32;20609;-66
2023/06/12 03:34:07;;;;;;;5.60;2.50;;;;;;;13.79;99.26;98542.47;4469618;32;20430;-66
2023/06/12 03:36:37;;;;;;;2.70;2.35;;;;;;;13.87;98.90;98545.13;4469994;32;20124;-66
2023/06/12 03:39:05;;;;;;;4.20;2.50;;;;;;;13.89;97.83;98544.97;4469303;32;20111;-66
2023/06/12 03:41:32;;;;;;;3.55;2.53;;;;;;;13.98;96.72;98543.97;4469683;32;20456;-66
2023/06/12 03:44:00;;;;;;;2.75;1.92;;;;;;;14.02;96.39;98537.41;4469421;32;20127;-66
2023/06/12 03:46:30;;;;;;;6.80;3.15;;;;;;;14.03;95.34;98541.66;4469943;32;20093;-66
2023/06/12 03:48:58;;;;;;;4.30;2.45;;;;;;;14.11;95.86;98546.94;4469511;32;20501;-66
2023/06/12 03:51:26;;;;;;;4.20;2.80;;;;;;;14.10;96.30;98553.19;4469907;32;20111;-66
2023/06/12 03:53:54;;;;;;;6.57;2.62;;;;;;;14.21;95.06;98552.03;4469687;32;20104;-66
2023/06/12 03:56:22;;;;;;;4.15;2.33;;;;;;;14.23;95.39;98555.34;4469708;32;20119;-67
2023/06/12 03:58:50;;;;;;;3.12;2.40;;;;;;;14.26;94.94;98547.09;4469609;32;20126;-66
2023/06/12 04:01:17;;;;;;;10.13;2.83;;;;;;;14.33;95.11;98547.25;4469978;32;20191;-66
2023/06/12 04:03:45;;;;;;;6.03;2.40;;;;;;;14.30;94.43;98550.22;4452116;32;20110;-66
2023/06/12 04:06:14;;;;;;;3.20;2.05;;;;;;;14.31;94.28;98547.41;4461166;32;20554;-66
2023/06/12 04:08:44;;;;;;;3.12;2.17;;;;;;;14.37;93.57;98551.22;4469650;32;20181;-66
2023/06/12 04:11:14;;;;;;;3.55;2.22;;;;;;;14.39;90.83;98543.94;4468762;32;20659;-67
2023/06/12 04:13:41;;;;;;;3.05;2.53;;;;;;;14.46;92.03;98550.19;4467037;32;20135;-66
2023/06/12 04:16:10;;;;;;;4.37;2.33;;;;;;;14.38;93.01;98547.56;4468567;32;20494;-67
2023/06/12 04:18:38;;;;;;;4.43;2.20;;;;;;;14.46;91.51;98549.34;4467069;32;20105;-66
2023/06/12 04:21:07;;;;;;;4.45;2.22;;;;;;;14.50;90.49;98548.03;4467250;32;20085;-66
2023/06/12 04:23:37;;;;;;;3.33;2.10;;;;;;;14.53;91.06;98550.34;4467014;32;20092;-66
2023/06/12 04:26:05;;;;;;;5.25;2.67;;;;;;;14.66;89.74;98547.22;4453677;32;20097;-67
2023/06/12 04:28:36;;;;;;;4.40;2.53;;;;;;;14.66;87.79;98544.59;4453098;32;20167;-66
2023/06/12 04:31:04;;;;;;;4.03;2.25;;;;;;;14.77;88.70;98553.94;4451918;32;20442;-66
2023/06/12 04:33:32;;;;;;;3.33;2.05;;;;;;;14.78;88.83;98548.50;4463004;32;20119;-66
2023/06/12 04:36:03;;;;;;;3.92;2.00;;;;;;;14.84;87.06;98552.28;4450517;32;20461;-66
2023/06/12 04:38:30;;;;;;;7.40;2.50;;;;;;;14.80;87.92;98546.50;4465621;32;20168;-66
2023/06/12 04:40:59;;;;;;;3.40;2.08;;;;;;;14.85;86.49;98553.91;4466633;32;20475;-66
2023/06/12 04:43:27;;;;;;;7.43;2.25;;;;;;;14.85;85.67;98553.91;4468348;32;20088;-66
2023/06/12 04:45:55;;;;;;;6.35;2.22;;;;;;;15.01;86.18;98550.41;4468570;32;20131;-66
2023/06/12 04:48:24;;;;;;;6.85;2.17;;;;;;;14.98;84.48;98559.47;4467210;32;20148;-66
2023/06/12 04:50:54;;;;;;;5.32;2.12;;;;;;;15.09;84.63;98558.28;4465049;32;20564;-67
2023/06/12 04:53:29;;;;;;;4.70;1.98;;;;;;;15.18;83.09;98564.34;4465480;32;20187;-66
2023/06/12 04:56:00;;;;;;;7.32;2.40;;;;;;;15.14;82.83;98557.75;4463878;32;20107;-66
2023/06/12 04:58:27;;;;;;;5.68;2.37;;;;;;;15.22;83.80;98555.09;4465368;32;20109;-66
2023/06/12 05:00:55;;;;;;;3.25;1.98;;;;;;;15.28;83.52;98559.69;4466521;32;20112;-66
2023/06/12 05:03:25;;;;;;;6.72;2.15;;;;;;;15.28;82.88;98567.59;4452954;32;20081;-66
2023/06/12 05:05:55;;;;;;;7.80;2.03;;;;;;;15.27;82.87;98568.59;4452403;32;20076;-66
2023/06/12 05:08:23;;;;;;;5.57;2.30;;;;;;;15.39;82.10;98572.50;4466451;32;20120;-66
2023/06/12 05:10:51;;;;;;;3.17;2.00;;;;;;;15.54;83.00;98575.22;4469004;32;20089;-66
2023/06/12 05:13:19;;;;;;;7.72;2.30;;;;;;;15.55;82.37;98570.78;4466198;32;20551;-66
2023/06/12 05:15:47;;;;;;;4.03;2.10;;;;;;;15.56;81.28;98570.59;4465258;32;20101;-66
2023/06/12 05:18:14;;;;;;;2.87;2.00;;;;;;;15.61;80.70;98575.37;4461544;32;20096;-66
2023/06/12 05:20:42;;;;;;;3.87;1.70;;;;;;;15.41;79.99;98573.16;4464060;32;20153;-67
2023/06/12 05:23:10;;;;;;;3.62;2.00;;;;;;;15.65;79.93;98568.72;4464511;32;20651;-66
2023/06/12 05:25:37;;;;;;;5.78;2.25;;;;;;;15.81;78.77;98562.56;4467576;32;20498;-66
2023/06/12 05:28:04;;;;;;;5.07;2.12;;;;;;;15.91;75.90;98564.94;4464146;32;20093;-66
2023/06/12 05:30:32;;;;;;;3.00;1.85;;;;;;;16.00;75.11;98569.16;4460775;32;20454;-66
2023/06/12 05:33:00;;;;;;;3.87;2.30;;;;;;;16.04;76.72;98567.81;4459923;32;20148;-65
2023/06/12 05:35:28;;;;;;;5.72;2.25;;;;;;;15.96;74.86;98563.44;4455913;32;20144;-68
2023/06/12 05:37:55;;;;;;;6.45;2.47;;;;;;;15.78;75.05;98569.00;4461893;32;20723;-68
2023/06/12 05:40:22;;;;;;;6.85;2.60;;;;;;;16.09;75.76;98567.28;4466409;32;20103;-66
2023/06/12 05:42:52;;;;;;;7.30;2.37;;;;;;;16.33;75.75;98563.62;4463124;32;20092;-67
2023/06/12 05:45:20;;;;;;;8.88;1.98;;;;;;;16.26;73.56;98575.91;4462010;32;20093;-68
2023/06/12 05:47:47;;;;;;;2.87;1.90;;;;;;;16.39;74.19;98562.91;4463082;32;20136;-68
2023/06/12 05:50:18;;;;;;;9.32;2.37;;;;;;;16.38;72.10;98576.28;4463877;32;20102;-67
2023/06/12 05:52:45;;;;;;;3.08;1.90;;;;;;;16.40;72.32;98576.94;4459308;32;20470;-68
2023/06/12 05:55:13;;;;;;;5.22;1.83;;;;;;;16.62;72.50;98575.25;4462015;32;20587;-67
2023/06/12 05:57:41;;;;;;;12.50;2.58;;;;;;;16.58;71.91;98577.44;4461261;32;20193;-67
2023/06/12 06:00:11;;;;;;;7.15;2.33;;;;;;;16.65;72.57;98581.00;4463705;32;20161;-68
2023/06/12 06:02:42;;;;;;;5.53;2.22;;;;;;;16.58;69.17;98579.22;4461178;32;20161;-69
2023/06/12 06:05:12;;;;;;;3.22;2.00;;;;;;;16.50;70.96;98583.63;4461048;32;20471;-67
2023/06/12 06:07:40;;;;;;;4.60;2.25;;;;;;;16.59;71.16;98579.06;4458748;32;20106;-68
2023/06/12 06:10:08;;;;;;;6.82;2.00;;;;;;;16.79;69.72;98583.81;4460597;32;20089;-68
2023/06/12 06:12:36;;;;;;;10.88;2.60;;;;;;;16.94;69.49;98581.22;4467484;32;20088;-68
2023/06/12 06:15:03;;;;;;;2.92;2.15;;;;;;;17.03;68.66;98588.91;4456200;32;20158;-68
2023/06/12 06:17:31;;;;;;;7.43;2.40;;;;;;;16.89;68.25;98583.59;4463058;32;20104;-68
2023/06/12 06:20:00;;;;;;;2.65;1.67;;;;;;;16.84;70.37;98582.28;4462913;32;20793;-68
2023/06/12 06:22:27;;;;;;;3.47;2.17;;;;;;;16.88;68.03;98584.59;4459776;32;20539;-68
2023/06/12 06:24:55;;;;;;;8.15;2.00;;;;;;;16.77;67.44;98586.66;4463825;32;20101;-68
2023/06/12 06:27:22;;;;;;;12.15;2.03;;;;;;;16.78;67.96;98588.31;4458322;32;20819;-69
2023/06/12 06:29:50;;;;;;;4.37;2.08;;;;;;;16.81;68.85;98587.12;4464509;32;20458;-69
2023/06/12 06:32:17;;;;;;;4.00;1.85;;;;;;;16.94;71.48;98578.56;4465105;32;20169;-67
2023/06/12 06:34:45;;;;;;;5.32;2.28;;;;;;;17.25;68.39;98577.56;4460052;32;20108;-68
2023/06/12 06:37:12;;;;;;;4.80;2.03;;;;;;;17.11;65.31;98573.91;4460079;32;20116;-69
2023/06/12 06:39:40;;;;;;;14.18;2.05;;;;;;;17.12;67.62;98580.84;4463182;32;20123;-69
2023/06/12 06:42:08;;;;;;;9.52;1.95;;;;;;;16.99;64.30;98565.63;4461190;32;20126;-69
2023/06/12 06:44:36;;;;;;;3.72;1.77;;;;;;;16.96;67.56;98576.56;4463741;32;20560;-69
2023/06/12 06:47:04;;;;;;;6.65;1.62;;;;;;;17.17;67.07;98586.44;4462358;32;20109;-69
2023/06/12 06:49:32;;;;;;;4.53;1.80;;;;;;;17.32;68.31;98581.09;4448741;32;20117;-69
2023/06/12 06:52:01;;;;;;;4.70;1.80;;;;;;;17.37;65.88;98587.47;4464590;32;20458;-67
2023/06/12 06:54:30;;;;;;;4.75;1.77;;;;;;;17.41;64.56;98587.94;4459286;32;20528;-68
2023/06/12 06:57:01;;;;;;;3.60;1.98;;;;;;;17.14;62.29;98597.38;4457200;32;20109;-69
2023/06/12 06:59:28;;;;;;;25.00;2.87;;;;;;;17.11;64.79;98587.12;4458069;32;20778;-68
2023/06/12 07:01:56;;;;;;;12.90;2.12;;;;;;;17.24;63.92;98586.50;4459629;32;20187;-68
2023/06/12 07:04:23;;;;;;;2.12;1.48;;;;;;;17.25;62.22;98578.38;4457847;32;20257;-69
2023/06/12 07:06:50;;;;;;;3.87;1.45;;;;;;;17.16;62.73;98584.78;4461924;32;20124;-68
2023/06/12 07:09:19;;;;;;;3.83;1.90;;;;;;;17.19;63.41;98579.91;4458530;32;20092;-67
2023/06/12 07:11:47;;;;;;;2.33;1.67;;;;;;;17.43;63.04;98577.16;4460446;32;20099;-66
2023/06/12 07:14:14;;;;;;;3.25;2.15;;;;;;;17.59;62.32;98584.06;4465189;32;20088;-67
2023/06/12 07:16:43;;;;;;;4.12;1.73;;;;;;;17.66;61.37;98577.00;4462193;32;20120;-66
2023/06/12 07:19:11;;;;;;;2.90;1.70;;;;;;;17.68;61.40;98585.56;4467219;32;20097;-66
2023/06/12 07:21:38;;;;;;;2.40;1.62;;;;;;;17.69;59.51;98580.09;4461720;32;20111;-66
2023/06/12 07:24:05;;;;;;;4.47;1.90;;;;;;;17.58;60.24;98587.69;4460390;32;20105;-66
2023/06/12 07:26:33;;;;;;;4.22;1.48;;;;;;;17.76;61.58;98577.53;4460427;32;20167;-65
2023/06/12 07:29:01;;;;;;;5.85;1.77;;;;;;;17.59;57.13;98589.34;4455870;32;20100;-65
2023/06/12 07:31:28;;;;;;;4.78;2.65;;;;;;;17.81;59.36;98572.47;4458718;32;20519;-65
2023/06/12 07:33:56;;;;;;;3.20;1.80;;;;;;;17.80;56.54;98575.31;4460871;32;20093;-66
2023/06/12 07:36:23;;;;;;;3.10;1.50;;;;;;;17.95;57.44;98576.09;4456996;32;20477;-66
2023/06/12 07:38:51;;;;;;;7.43;1.50;;;;;;;17.83;56.68;98578.41;4464580;32;20100;-65
2023/06/12 07:41:20;;;;;;;20.60;3.05;;;;;;;17.99;57.39;98573.91;4459511;32;20092;-67
2023/06/12 07:43:47;;;;;;;7.55;1.85;;;;;;;18.08;57.38;98583.37;4448657;32;20100;-66
2023/06/12 07:46:15;;;;;;;3.85;1.30;;;;;;;18.35;59.21;98587.06;4461775;32;20133;-66
2023/06/12 07:48:43;;;;;;;6.10;1.50;;;;;;;18.24;54.64;98577.81;4465280;32;20135;-66
2023/06/12 07:51:11;;;;;;;2.47;1.37;;;;;;;18.08;54.06;98584.19;4459428;32;20119;-66
2023/06/12 07:53:38;;;;;;;4.22;1.95;;;;;;;18.25;56.13;98590.03;4460026;32;21854;-65
2023/06/12 07:56:07;;;;;;;3.60;1.52;;;;;;;18.77;57.39;98579.19;4457031;32;20125;-66
2023/06/12 07:58:37;;;;;;;4.53;1.55;;;;;;;18.71;55.32;98585.28;4462452;32;20143;-67
2023/06/12 08:01:05;;;;;;;2.20;1.48;;;;;;;18.75;54.69;98574.06;4462561;32;20163;-65
2023/06/12 08:03:38;;;;;;;3.70;1.40;;;;;;;18.66;53.70;98579.75;4458593;32;20106;-66
2023/06/12 08:06:11;;;;;;;4.00;1.33;;;;;;;18.42;51.65;98574.66;4458272;32;20117;-66
2023/06/12 08:08:47;;;;;;;3.60;1.42;;;;;;;18.21;50.24;98583.50;4460190;32;20541;-66
2023/06/12 08:11:18;;;;;;;6.43;1.40;;;;;;;18.38;51.00;98568.13;4458833;32;20100;-66
2023/06/12 08:13:46;;;;;;;2.17;1.48;;;;;;;18.56;50.03;98583.56;4462864;32;20439;-66
2023/06/12 08:16:14;;;;;;;4.00;1.98;;;;;;;18.52;50.18;98574.34;4461375;32;20494;-66
2023/06/12 08:18:41;;;;;;;5.68;1.65;;;;;;;18.52;48.14;98582.28;4460653;32;20096;-67
2023/06/12 08:21:10;;;;;;;3.20;1.70;;;;;;;18.74;50.99;98582.22;4461348;32;20092;-66
2023/06/12 08:23:37;;;;;;;2.75;1.70;;;;;;;18.87;49.77;98582.34;4459749;32;20157;-67
2023/06/12 08:26:05;;;;;;;6.45;1.40;;;;;;;18.79;46.25;98585.94;4458694;32;20101;-67
2023/06/12 08:28:37;;;;;;;1.90;1.25;;;;;;;18.91;50.19;98582.75;4461290;32;20107;-66
2023/06/12 08:31:05;;;;;;;2.20;1.42;;;;;;;19.01;48.02;98577.13;4455512;32;20088;-67
2023/06/12 08:33:33;;;;;;;3.10;1.02;;;;;;;18.79;46.53;98590.44;4456447;32;20097;-66
2023/06/12 08:36:01;;;;;;;4.95;1.40;;;;;;;18.80;47.69;98581.44;4456237;32;20159;-66
2023/06/12 08:38:30;;;;;;;7.62;1.73;;;;;;;18.95;48.03;98579.53;4459735;32;20198;-66
2023/06/12 08:41:02;;;;;;;3.62;1.58;;;;;;;19.08;48.61;98584.09;4460842;32;20129;-66
2023/06/12 08:43:30;;;;;;;4.80;1.40;;;;;;;19.15;45.89;98590.25;4460125;32;20176;-66
2023/06/12 08:46:07;;;;;;;4.40;1.40;;;;;;;19.21;47.89;98587.81;4461817;32;20088;-66
2023/06/12 08:48:36;;;;;;;7.85;1.60;;;;;;;19.20;46.85;98580.88;4461279;32;20542;-67
2023/06/12 08:51:04;;;;;;;1.70;1.30;;;;;;;19.05;47.45;98583.69;4459183;32;20096;-66
2023/06/12 08:53:33;;;;;;;1.55;1.10;;;;;;;19.15;47.96;98586.78;4450115;32;20101;-67
2023/06/12 08:56:02;;;;;;;2.17;1.98;;;;;;;19.55;48.05;98584.28;4462041;32;20100;-66
2023/06/12 08:58:29;;;;;;;1.98;1.25;;;;;;;19.79;49.03;98590.13;4460954;32;20120;-67
2023/06/12 09:00:57;;;;;;;2.97;1.25;;;;;;;19.77;47.57;98595.62;4459788;32;20084;-66
2023/06/12 09:03:26;;;;;;;2.12;1.27;;;;;;;19.29;46.64;98583.19;4451146;32;20516;-66
2023/06/12 09:05:57;;;;;;;7.07;1.80;;;;;;;19.38;46.90;98575.84;4443432;32;20112;-66
2023/06/12 09:08:24;;;;;;;4.95;1.25;;;;;;;19.75;50.85;98575.56;4446179;32;20100;-67
2023/06/12 09:10:52;;;;;;;6.80;2.08;;;;;;;19.89;47.19;98584.41;4459671;32;20561;-67
2023/06/12 09:13:19;;;;;;;2.00;1.40;;;;;;;19.93;45.47;98597.09;4461347;32;20234;-66
2023/06/12 09:15:51;;;;;;;2.50;1.50;;;;;;;19.61;45.93;98591.47;4458066;32;20183;-66
2023/06/12 09:18:19;;;;;;;3.33;1.40;;;;;;;19.49;45.65;98591.22;4460716;32;20123;-65
2023/06/12 09:20:49;;;;;;;5.10;1.50;;;;;;;19.66;45.55;98586.34;4462758;32;20583;-66
2023/06/12 09:23:17;;;;;;;3.37;1.30;;;;;;;19.57;45.50;98584.91;4459205;32;20112;-67
2023/06/12 09:25:44;;;;;;;4.32;1.45;;;;;;;19.37;45.21;98594.66;4460474;32;20100;-67
2023/06/12 09:28:36;;;;;;;2.85;1.40;;;;;;;19.54;46.01;98603.09;4460080;32;20100;-67
2023/06/12 09:31:04;;;;;;;3.72;1.40;;;;;;;19.89;48.02;98595.84;4456818;32;20154;-66
2023/06/12 09:33:38;;;;;;;2.00;1.40;;;;;;;19.82;46.03;98587.06;4456757;32;20104;-67
2023/06/12 09:36:05;;;;;;;9.93;2.05;;;;;;;19.94;46.36;98588.09;4458669;32;20123;-67
2023/06/12 09:38:35;;;;;;;1.85;1.30;;;;;;;20.13;45.32;98590.97;4455003;32;20172;-67
2023/06/12 09:41:04;;;;;;;7.75;1.50;;;;;;;20.02;46.53;98595.88;4458331;32;20104;-67
2023/06/12 09:43:31;;;;;;;4.12;1.40;;;;;;;19.96;43.87;98586.03;4457602;32;20119;-66
2023/06/12 09:46:05;;;;;;;1.90;1.27;;;;;;;19.91;43.84;98593.81;4460343;32;20865;-68
2023/06/12 09:48:39;;;;;;;6.90;1.87;;;;;;;20.17;47.00;98585.03;4457138;32;20084;-69
2023/06/12 09:51:08;;;;;;;9.43;1.65;;;;;;;20.32;47.88;98582.19;4452350;32;20804;-69
2023/06/12 09:53:37;;;;;;;3.10;1.50;;;;;;;20.37;44.85;98590.37;4461942;32;20456;-69
2023/06/12 09:56:07;;;;;;;6.93;1.73;;;;;;;20.52;47.27;98584.03;4463193;32;20096;-69
2023/06/12 09:58:38;;;;;;;6.07;1.37;;;;;;;20.51;44.59;98583.19;4457045;32;20126;-70
2023/06/12 10:01:07;;;;;;;3.20;1.48;;;;;;;20.31;45.44;98593.03;4437565;32;20101;-69
2023/06/12 10:03:39;;;;;;;3.28;1.37;;;;;;;20.14;44.05;98587.31;4458958;32;20151;-69
2023/06/12 10:06:08;;;;;;;1.83;1.55;;;;;;;20.10;44.34;98586.88;4455842;32;20104;-68
2023/06/12 10:08:36;;;;;;;6.10;1.62;;;;;;;20.19;44.25;98590.16;4448166;32;20108;-69
2023/06/12 10:11:04;;;;;;;1.83;1.20;;;;;;;20.33;46.03;98589.16;4457144;32;20130;-70
2023/06/12 10:13:34;;;;;;;6.12;1.58;;;;;;;20.82;47.86;98586.28;4465515;32;20115;-69
2023/06/12 10:16:03;;;;;;;8.63;1.50;;;;;;;20.94;45.74;98595.25;4464500;32;20657;-69
2023/06/12 10:18:31;;;;;;;3.78;1.55;;;;;;;20.89;46.29;98587.91;4449835;32;20119;-69
2023/06/12 10:21:00;;;;;;;14.35;1.77;;;;;;;20.86;44.07;98587.47;4444925;32;20496;-68
2023/06/12 10:23:29;;;;;;;6.45;1.33;;;;;;;20.87;45.30;98581.13;4463080;32;20784;-69
2023/06/12 10:26:00;;;;;;;5.18;1.40;;;;;;;20.64;45.55;98577.03;4463361;32;20591;-67
2023/06/12 10:28:28;;;;;;;6.90;1.40;;;;;;;21.00;44.59;98583.75;4468051;32;20124;-67
2023/06/12 10:31:19;;;;;;;8.43;1.60;;;;;;;20.83;44.56;98579.91;4456008;32;20678;-66
2023/06/12 10:34:04;;;;;;;4.65;1.77;;;;;;;20.91;45.88;98577.03;4434137;32;20101;-66
2023/06/12 10:36:42;;;;;;;3.80;1.62;;;;;;;20.82;44.25;98592.41;4457145;32;20115;-66
2023/06/12 10:39:13;;;;;;;3.25;1.42;;;;;;;20.78;43.98;98579.72;4455603;32;20105;-66
2023/06/12 10:41:51;;;;;;;4.28;1.50;;;;;;;20.90;43.42;98581.53;4458697;32;20115;-66
2023/06/12 10:44:38;;;;;;;43.97;4.72;;;;;;;21.33;44.21;98571.34;4462270;32;20118;-66
2023/06/12 10:47:06;;;;;;;4.07;1.45;;;;;;;21.26;44.12;98563.41;4458107;32;20118;-66
2023/06/12 10:49:57;;;;;;;2.25;1.45;;;;;;;21.17;42.56;98576.13;4449709;32;20156;-66
2023/06/12 10:52:26;;;;;;;3.30;1.40;;;;;;;21.29;42.29;98570.97;4466731;32;20462;-66
2023/06/12 10:55:15;;;;;;;5.53;1.70;;;;;;;21.51;42.07;98568.00;4465551;32;20092;-66
2023/06/12 10:57:59;;;;;;;6.70;1.30;;;;;;;21.61;44.68;98571.03;4459739;32;20108;-66
2023/06/12 11:00:33;;;;;;;8.82;1.67;;;;;;;21.31;44.49;98566.22;4461753;32;20124;-68
2023/06/12 11:03:04;;;;;;;3.22;1.60;;;;;;;21.41;44.10;98560.47;4464283;32;20500;-67
2023/06/12 11:05:32;;;;;;;9.63;2.08;;;;;;;21.32;42.81;98556.38;4459608;32;20097;-67
2023/06/12 11:08:02;;;;;;;3.65;1.80;;;;;;;21.57;43.95;98564.50;4459301;32;20130;-65
2023/06/12 11:10:31;;;;;;;14.65;1.98;;;;;;;21.82;43.83;98563.72;4461331;32;20097;-66
2023/06/12 11:13:00;;;;;;;11.63;1.65;;;;;;;21.90;43.91;98542.97;4454044;32;21185;-66
2023/06/12 11:15:27;;;;;;;8.75;1.70;;;;;;;22.00;41.91;98545.16;4456303;32;20081;-66
2023/06/12 11:17:55;;;;;;;17.05;2.53;;;;;;;21.89;42.53;98545.84;4451160;32;20455;-66
2023/06/12 11:20:23;;;;;;;4.47;1.70;;;;;;;22.02;42.07;98551.09;4460870;32;20099;-66
2023/06/12 11:22:58;;;;;;;3.28;1.30;;;;;;;22.03;42.21;98546.56;4456554;32;20109;-66
2023/06/12 11:25:26;;;;;;;4.75;1.30;;;;;;;21.43;40.41;98540.53;4456968;32;20085;-66
2023/06/12 11:27:54;;;;;;;4.82;1.30;;;;;;;21.84;41.87;98545.69;4445528;32;20104;-66
2023/06/12 11:30:23;;;;;;;3.62;1.40;;;;;;;21.69;41.12;98540.66;4458338;32;20092;-66
2023/06/12 11:33:08;;;;;;;31.17;3.35;;;;;;;21.54;41.62;98532.94;4461426;32;20092;-66
2023/06/12 11:35:39;;;;;;;5.53;1.30;;;;;;;21.82;42.77;98539.72;4462213;32;20097;-66
2023/06/12 11:38:09;;;;;;;3.33;1.73;;;;;;;21.55;40.55;98542.59;4463845;32;20198;-64
2023/06/12 11:40:40;;;;;;;8.95;1.50;;;;;;;21.26;42.02;98539.41;4467506;32;20678;-66